createdAt,value
2018-12-25T00:00:42.495Z,4.27
2018-12-25T00:03:22.881Z,3.87
2018-12-25T00:06:03.325Z,4.30
2018-12-25T00:08:43.645Z,3.70
2018-12-25T00:11:23.968Z,4.27
2018-12-25T00:14:06.086Z,4.13
2018-12-25T00:16:46.372Z,4.13
2018-12-25T00:19:26.580Z,4.03
2018-12-25T00:22:06.853Z,3.80
2018-12-25T00:24:46.977Z,4.17
2018-12-25T00:27:26.960Z,4.30
2018-12-25T00:30:07.132Z,3.63
2018-12-25T00:32:47.488Z,3.77
2018-12-25T00:35:27.667Z,3.57
2018-12-25T00:38:07.985Z,4.13
2018-12-25T00:40:48.054Z,3.50
2018-12-25T00:43:28.284Z,3.77
2018-12-25T00:46:08.362Z,3.90
2018-12-25T00:48:48.469Z,3.90
2018-12-25T00:51:28.717Z,3.70
2018-12-25T00:54:08.863Z,4.23
2018-12-25T00:56:48.989Z,4.00
2018-12-25T00:59:29.096Z,3.70
2018-12-25T01:02:09.584Z,3.87
2018-12-25T01:04:49.645Z,3.90
2018-12-25T01:07:29.921Z,4.07
2018-12-25T01:10:10.219Z,3.73
2018-12-25T01:12:50.648Z,3.53
2018-12-25T01:15:30.813Z,3.80
2018-12-25T01:18:11.201Z,3.77
2018-12-25T01:20:51.432Z,3.50
2018-12-25T01:23:31.941Z,3.67
2018-12-25T01:26:11.939Z,3.80
2018-12-25T01:28:52.242Z,4.10
2018-12-25T01:31:32.077Z,3.67
2018-12-25T01:34:12.443Z,3.57
2018-12-25T01:36:52.836Z,3.93
2018-12-25T01:39:32.988Z,3.80
2018-12-25T01:42:13.230Z,3.83
2018-12-25T01:44:53.492Z,3.70
2018-12-25T01:47:33.654Z,3.87
2018-12-25T01:50:13.784Z,3.60
2018-12-25T01:52:53.924Z,3.23
2018-12-25T01:55:34.020Z,3.90
2018-12-25T01:58:14.302Z,3.43
2018-12-25T02:00:54.472Z,3.40
2018-12-25T02:03:34.668Z,3.10
2018-12-25T02:06:14.643Z,3.70
2018-12-25T02:08:54.719Z,3.67
2018-12-25T02:11:34.894Z,3.57
2018-12-25T02:14:15.081Z,3.40
2018-12-25T02:16:55.344Z,3.73
2018-12-25T02:19:40.193Z,3.57
2018-12-25T02:22:17.769Z,3.37
2018-12-25T02:24:57.922Z,3.67
2018-12-25T02:27:38.635Z,3.60
2018-12-25T02:30:18.688Z,3.73
2018-12-25T02:32:58.700Z,3.57
2018-12-25T02:35:39.066Z,3.33
2018-12-25T02:38:19.200Z,3.10
2018-12-25T02:40:59.194Z,3.00
2018-12-25T02:43:39.424Z,3.20
2018-12-25T02:46:19.653Z,3.67
2018-12-25T02:48:59.951Z,3.20
2018-12-25T02:51:40.359Z,3.93
2018-12-25T02:54:20.651Z,3.50
2018-12-25T02:57:01.178Z,3.00
2018-12-25T02:59:41.435Z,3.30
2018-12-25T03:02:21.737Z,3.27
2018-12-25T03:05:01.725Z,3.07
2018-12-25T03:07:41.772Z,3.40
2018-12-25T03:10:22.234Z,3.03
2018-12-25T03:13:02.559Z,3.33
2018-12-25T03:15:42.720Z,3.30
2018-12-25T03:18:23.172Z,3.07
2018-12-25T03:21:03.671Z,3.47
2018-12-25T03:23:43.557Z,3.23
2018-12-25T03:26:23.518Z,3.13
2018-12-25T03:29:03.961Z,2.80
2018-12-25T03:31:44.148Z,3.10
2018-12-25T03:34:24.410Z,3.33
2018-12-25T03:37:05.028Z,3.00
2018-12-25T03:39:45.028Z,2.70
2018-12-25T03:42:25.495Z,3.20
2018-12-25T03:45:05.658Z,3.10
2018-12-25T03:47:46.181Z,3.33
2018-12-25T03:50:26.199Z,3.40
2018-12-25T03:53:06.471Z,3.00
2018-12-25T03:55:46.609Z,3.43
2018-12-25T03:58:26.842Z,2.60
2018-12-25T04:01:06.791Z,3.20
2018-12-25T04:03:47.072Z,2.70
2018-12-25T04:06:27.302Z,3.17
2018-12-25T04:09:07.546Z,2.70
2018-12-25T04:11:48.046Z,2.73
2018-12-25T04:14:28.006Z,2.73
2018-12-25T04:17:09.305Z,2.70
2018-12-25T04:19:49.452Z,2.83
2018-12-25T04:22:29.773Z,3.27
2018-12-25T04:25:09.870Z,2.93
2018-12-25T04:27:49.981Z,2.80
2018-12-25T04:30:30.369Z,2.70
2018-12-25T04:33:10.945Z,2.80
2018-12-25T04:35:51.295Z,2.90
2018-12-25T04:38:31.604Z,2.50
2018-12-25T04:41:12.066Z,2.63
2018-12-25T04:43:52.279Z,3.10
2018-12-25T04:46:32.685Z,3.00
2018-12-25T04:49:13.057Z,2.47
2018-12-25T04:51:53.164Z,2.80
2018-12-25T04:54:36.913Z,3.13
2018-12-25T04:57:16.737Z,3.00
2018-12-25T04:59:57.208Z,2.87
2018-12-25T05:02:37.795Z,3.10
2018-12-25T05:05:18.070Z,2.93
2018-12-25T05:07:58.317Z,3.00
2018-12-25T05:10:38.553Z,2.50
2018-12-25T05:13:18.628Z,2.60
2018-12-25T05:15:58.965Z,3.03
2018-12-25T05:18:39.369Z,3.03
2018-12-25T05:21:19.186Z,2.83
2018-12-25T05:23:59.394Z,3.00
2018-12-25T05:26:39.588Z,2.30
2018-12-25T05:29:19.756Z,2.73
2018-12-25T05:32:00.180Z,2.53
2018-12-25T05:34:40.131Z,2.73
2018-12-25T05:37:19.933Z,2.73
2018-12-25T05:40:00.311Z,2.80
2018-12-25T05:42:40.404Z,2.13
2018-12-25T05:45:20.641Z,2.73
2018-12-25T05:48:01.126Z,2.60
2018-12-25T05:50:46.642Z,2.50
2018-12-25T05:53:23.381Z,2.40
2018-12-25T05:56:03.660Z,2.90
2018-12-25T05:58:43.918Z,2.63
2018-12-25T06:01:24.862Z,2.63
2018-12-25T06:04:05.114Z,2.50
2018-12-25T06:06:45.455Z,2.70
2018-12-25T06:09:25.653Z,2.60
2018-12-25T06:12:05.710Z,2.63
2018-12-25T06:14:45.880Z,2.30
2018-12-25T06:17:26.234Z,2.73
2018-12-25T06:22:01.964Z,2.40
2018-12-25T06:24:42.186Z,2.67
2018-12-25T06:27:22.345Z,2.57
2018-12-25T06:30:02.914Z,2.60
2018-12-25T06:32:44.812Z,2.80
2018-12-25T06:35:25.380Z,2.67
2018-12-25T06:38:05.792Z,2.70
2018-12-25T06:40:45.924Z,2.40
2018-12-25T06:43:26.036Z,2.27
2018-12-25T06:46:06.420Z,2.47
2018-12-25T06:48:46.344Z,2.30
2018-12-25T06:51:26.595Z,2.50
2018-12-25T06:54:06.732Z,2.50
2018-12-25T06:56:46.865Z,2.00
2018-12-25T06:59:27.209Z,2.40
2018-12-25T07:02:07.462Z,2.40
2018-12-25T07:04:47.669Z,2.30
2018-12-25T07:07:27.684Z,2.27
2018-12-25T07:10:07.748Z,2.37
2018-12-25T07:12:48.342Z,2.40
2018-12-25T07:15:32.975Z,2.60
2018-12-25T07:21:38.265Z,2.27
2018-12-25T07:24:18.639Z,2.83
2018-12-25T07:26:58.725Z,2.53
2018-12-25T07:29:38.761Z,2.30
2018-12-25T07:32:19.227Z,2.10
2018-12-25T07:34:59.576Z,2.33
2018-12-25T07:37:39.724Z,2.27
2018-12-25T07:40:19.809Z,2.23
2018-12-25T07:43:00.092Z,2.57
2018-12-25T07:45:40.386Z,2.53
2018-12-25T07:48:20.386Z,1.97
2018-12-25T07:51:00.492Z,2.30
2018-12-25T08:06:20.079Z,2.23
2018-12-25T08:09:06.936Z,2.17
2018-12-25T08:11:47.018Z,2.47
2018-12-25T08:14:27.102Z,2.27
2018-12-25T08:17:07.581Z,1.93
2018-12-25T08:19:54.402Z,2.03
2018-12-25T08:22:35.041Z,2.20
2018-12-25T08:25:15.515Z,2.30
2018-12-25T08:27:55.762Z,2.37
2018-12-25T08:30:35.969Z,2.00
2018-12-25T08:33:15.893Z,2.17
2018-12-25T08:35:56.233Z,2.20
2018-12-25T08:38:36.376Z,2.00
2018-12-25T08:41:16.644Z,2.13
2018-12-25T08:43:56.961Z,2.50
2018-12-25T08:46:37.245Z,2.10
2018-12-25T08:49:17.505Z,2.20
2018-12-25T08:51:57.693Z,2.27
2018-12-25T08:54:39.844Z,1.80
2018-12-25T08:57:19.897Z,2.40
2018-12-25T09:00:00.268Z,1.87
2018-12-25T09:02:41.291Z,2.07
2018-12-25T09:05:21.432Z,2.00
2018-12-25T09:08:01.873Z,2.10
2018-12-25T09:10:41.968Z,1.87
2018-12-25T09:13:22.054Z,1.90
2018-12-25T09:16:02.479Z,2.00
2018-12-25T09:21:46.208Z,1.60
2018-12-25T09:24:21.100Z,2.07
2018-12-25T09:27:01.305Z,1.83
2018-12-25T09:29:41.583Z,2.00
2018-12-25T09:32:21.868Z,1.90
2018-12-25T09:35:02.017Z,1.90
2018-12-25T09:37:42.242Z,1.67
2018-12-25T09:40:22.742Z,1.93
2018-12-25T09:43:02.849Z,1.90
2018-12-25T09:45:43.265Z,2.20
2018-12-25T09:48:23.721Z,2.00
2018-12-25T09:51:03.834Z,1.63
2018-12-25T09:56:52.483Z,1.97
2018-12-25T09:59:32.644Z,2.00
2018-12-25T10:02:12.864Z,2.10
2018-12-25T10:04:53.013Z,1.77
2018-12-25T10:07:33.440Z,2.20
2018-12-25T10:10:13.391Z,2.07
2018-12-25T10:12:53.407Z,2.00
2018-12-25T10:15:33.533Z,2.10
2018-12-25T10:18:13.667Z,1.60
2018-12-25T10:20:53.805Z,1.30
2018-12-25T10:23:34.265Z,1.80
2018-12-25T10:26:14.224Z,1.57
2018-12-25T10:28:54.622Z,1.90
2018-12-25T10:31:34.733Z,1.63
2018-12-25T10:34:14.858Z,1.67
2018-12-25T10:36:54.902Z,1.80
2018-12-25T10:39:35.106Z,1.87
2018-12-25T10:42:15.079Z,1.73
2018-12-25T10:44:55.229Z,1.73
2018-12-25T10:47:35.256Z,1.80
2018-12-25T10:50:15.578Z,1.70
2018-12-25T10:52:55.532Z,1.67
2018-12-25T10:55:35.642Z,2.07
2018-12-25T10:58:16.108Z,1.40
2018-12-25T11:00:56.219Z,1.80
2018-12-25T11:03:37.086Z,1.80
2018-12-25T11:06:17.617Z,1.53
2018-12-25T11:08:57.781Z,1.97
2018-12-25T11:11:38.284Z,1.73
2018-12-25T11:14:18.380Z,2.07
2018-12-25T11:16:58.750Z,1.63
2018-12-25T11:19:40.221Z,2.00
2018-12-25T11:22:20.250Z,1.80
2018-12-25T11:25:00.775Z,2.03
2018-12-25T11:27:40.869Z,1.70
2018-12-25T11:30:21.072Z,1.70
2018-12-25T11:33:01.393Z,1.40
2018-12-25T11:35:41.734Z,1.40
2018-12-25T11:38:21.560Z,1.83
2018-12-25T11:41:02.778Z,1.60
2018-12-25T11:43:42.941Z,1.80
2018-12-25T11:46:23.219Z,1.37
2018-12-25T11:49:03.540Z,1.50
2018-12-25T11:51:43.574Z,1.30
2018-12-25T11:54:23.569Z,1.60
2018-12-25T11:57:04.001Z,1.80
2018-12-25T11:59:44.377Z,1.50
2018-12-25T12:02:24.919Z,1.30
2018-12-25T12:05:05.437Z,1.80
2018-12-25T12:07:45.946Z,1.60
2018-12-25T12:10:26.473Z,1.23
2018-12-25T12:13:06.506Z,1.60
2018-12-25T12:15:46.997Z,1.27
2018-12-25T12:18:27.115Z,1.27
2018-12-25T12:21:07.534Z,1.97
2018-12-25T12:23:47.899Z,1.60
2018-12-25T12:26:28.498Z,1.50
2018-12-25T12:29:08.904Z,1.50
2018-12-25T12:31:48.912Z,1.27
2018-12-25T12:34:30.036Z,1.10
2018-12-25T12:37:10.657Z,1.50
2018-12-25T12:39:50.785Z,1.60
2018-12-25T12:42:31.199Z,1.30
2018-12-25T12:45:11.386Z,1.80
2018-12-25T12:47:51.427Z,1.60
2018-12-25T12:50:31.741Z,1.57
2018-12-25T12:53:11.961Z,1.40
2018-12-25T12:55:51.984Z,1.20
2018-12-25T12:58:32.309Z,1.40
2018-12-25T13:04:21.925Z,1.50
2018-12-25T13:07:02.006Z,1.57
2018-12-25T13:09:42.316Z,1.00
2018-12-25T13:12:22.625Z,1.47
2018-12-25T13:15:02.756Z,1.27
2018-12-25T13:17:43.113Z,1.23
2018-12-25T13:20:23.163Z,1.33
2018-12-25T13:23:03.385Z,1.50
2018-12-25T13:25:43.714Z,1.43
2018-12-25T13:28:24.298Z,1.63
2018-12-25T13:34:30.027Z,1.30
2018-12-25T13:37:10.583Z,1.30
2018-12-25T13:39:51.305Z,1.27
2018-12-25T13:42:31.079Z,1.17
2018-12-25T13:45:12.105Z,1.30
2018-12-25T13:47:53.344Z,1.20
2018-12-25T13:50:34.148Z,1.00
2018-12-25T13:53:15.438Z,1.20
2018-12-25T13:55:56.854Z,1.40
2018-12-25T13:58:57.170Z,1.23
2018-12-25T14:02:05.439Z,1.27
2018-12-25T14:05:02.790Z,1.40
2018-12-25T14:07:40.342Z,1.40
2018-12-25T14:10:22.595Z,1.40
2018-12-25T14:13:07.993Z,1.50
2018-12-25T14:15:51.379Z,1.40
2018-12-25T14:18:32.440Z,1.10
2018-12-25T14:21:13.583Z,1.30
2018-12-25T14:23:55.079Z,1.63
2018-12-25T14:26:39.513Z,1.43
2018-12-25T14:29:20.781Z,1.27
2018-12-25T14:32:05.821Z,1.40
2018-12-25T14:37:54.843Z,0.97
2018-12-25T14:40:38.984Z,1.33
2018-12-25T14:43:26.861Z,1.40
2018-12-25T14:46:11.783Z,1.10
2018-12-25T14:48:53.452Z,1.53
2018-12-25T14:51:54.857Z,1.13
2018-12-25T14:54:37.527Z,1.53
2018-12-25T15:00:08.706Z,1.30
2018-12-25T15:02:50.111Z,1.20
2018-12-25T15:05:32.090Z,1.30
2018-12-25T15:08:14.116Z,1.07
2018-12-25T15:10:57.887Z,1.20
2018-12-25T15:13:38.835Z,1.50
2018-12-25T15:19:27.970Z,1.23
2018-12-25T15:22:09.332Z,1.13
2018-12-25T15:24:50.671Z,1.27
2018-12-25T15:27:32.263Z,1.10
2018-12-25T15:30:12.657Z,1.23
2018-12-25T15:32:52.892Z,1.07
2018-12-25T15:35:33.104Z,1.13
2018-12-25T15:38:13.424Z,1.17
2018-12-25T15:40:54.052Z,1.00
2018-12-25T15:43:34.537Z,1.20
2018-12-25T15:46:15.628Z,1.37
2018-12-25T15:48:58.332Z,1.00
2018-12-25T15:51:39.157Z,1.23
2018-12-25T15:54:19.142Z,1.47
2018-12-25T15:56:59.512Z,1.33
2018-12-25T15:59:39.717Z,0.87
2018-12-25T16:02:19.948Z,1.33
2018-12-25T16:05:00.084Z,1.47
2018-12-25T16:07:40.049Z,1.47
2018-12-25T16:10:20.305Z,1.43
2018-12-25T16:13:00.417Z,1.17
2018-12-25T16:15:41.809Z,1.50
2018-12-25T16:18:22.161Z,1.50
2018-12-25T16:21:02.481Z,1.53
2018-12-25T16:23:45.524Z,1.80
2018-12-25T16:26:23.534Z,1.40
2018-12-25T16:32:34.553Z,2.63
2018-12-25T16:35:15.437Z,3.40
2018-12-25T16:37:57.892Z,4.03
2018-12-25T16:40:38.846Z,4.70
2018-12-25T16:43:18.766Z,4.53
2018-12-25T16:45:59.326Z,4.97
2018-12-25T16:48:45.646Z,5.30
2018-12-25T16:51:32.837Z,4.77
2018-12-25T16:57:02.789Z,5.20
2018-12-25T16:59:42.980Z,5.07
2018-12-25T17:02:23.401Z,5.37
2018-12-25T17:05:03.992Z,5.80
2018-12-25T17:07:44.404Z,6.20
2018-12-25T17:10:24.594Z,6.57
2018-12-25T17:13:04.865Z,6.97
2018-12-25T17:15:45.217Z,6.40
2018-12-25T17:18:25.543Z,6.60
2018-12-25T17:21:05.530Z,6.43
2018-12-25T17:23:45.600Z,6.53
2018-12-25T17:26:25.751Z,6.77
2018-12-25T17:29:05.992Z,5.93
2018-12-25T17:31:47.470Z,6.17
2018-12-25T17:34:27.726Z,6.60
2018-12-25T17:37:07.881Z,6.57
2018-12-25T17:39:48.297Z,6.13
2018-12-25T17:42:30.281Z,6.73
2018-12-25T17:45:10.757Z,6.67
2018-12-25T17:47:51.018Z,6.43
2018-12-25T17:50:31.502Z,6.67
2018-12-25T17:53:11.501Z,6.10
2018-12-25T17:55:52.025Z,7.00
2018-12-25T17:58:32.685Z,6.60
2018-12-25T18:01:12.628Z,6.20
2018-12-25T18:03:52.675Z,6.73
2018-12-25T18:06:32.781Z,7.17
2018-12-25T18:09:13.173Z,6.40
2018-12-25T18:11:53.515Z,6.73
2018-12-25T18:14:33.638Z,5.90
2018-12-25T18:17:18.792Z,6.37
2018-12-25T18:19:56.311Z,6.23
2018-12-25T18:22:36.354Z,6.60
2018-12-25T18:25:16.500Z,6.70
2018-12-25T18:27:56.624Z,5.93
2018-12-25T18:30:36.773Z,6.73
2018-12-25T18:33:16.973Z,7.00
2018-12-25T18:35:57.349Z,5.90
2018-12-25T18:38:37.652Z,6.60
2018-12-25T18:41:17.651Z,6.90
2018-12-25T18:43:58.011Z,6.97
2018-12-25T18:46:38.321Z,6.10
2018-12-25T18:49:18.379Z,6.50
2018-12-25T18:51:58.485Z,6.80
2018-12-25T18:54:38.651Z,6.10
2018-12-25T18:57:18.766Z,6.50
2018-12-25T18:59:58.936Z,6.67
2018-12-25T19:02:38.919Z,6.03
2018-12-25T19:05:19.043Z,6.00
2018-12-25T19:07:59.363Z,6.27
2018-12-25T19:10:39.438Z,6.40
2018-12-25T19:13:19.672Z,6.60
2018-12-25T19:16:00.026Z,6.57
2018-12-25T19:21:29.576Z,5.80
2018-12-25T19:24:09.683Z,6.40
2018-12-25T19:26:50.059Z,6.10
2018-12-25T19:29:30.134Z,6.13
2018-12-25T19:32:10.145Z,6.60
2018-12-25T19:34:50.615Z,5.93
2018-12-25T19:37:30.997Z,6.60
2018-12-25T19:40:11.333Z,6.40
2018-12-25T19:42:51.516Z,6.23
2018-12-25T19:45:31.963Z,6.60
2018-12-25T19:48:12.355Z,6.03
2018-12-25T19:50:52.577Z,6.47
2018-12-25T19:53:33.076Z,5.80
2018-12-25T19:56:13.348Z,6.23
2018-12-25T19:58:53.641Z,6.37
2018-12-25T20:01:33.944Z,6.30
2018-12-25T20:04:14.193Z,6.07
2018-12-25T20:06:54.609Z,5.73
2018-12-25T20:13:03.630Z,6.40
2018-12-25T20:15:44.018Z,6.10
2018-12-25T20:18:24.409Z,6.37
2018-12-25T20:21:04.636Z,5.87
2018-12-25T20:23:44.728Z,5.97
2018-12-25T20:26:24.889Z,6.70
2018-12-25T20:29:05.928Z,6.10
2018-12-25T20:31:46.657Z,6.10
2018-12-25T20:34:27.398Z,6.20
2018-12-25T20:37:08.009Z,6.13
2018-12-25T20:39:48.407Z,6.07
2018-12-25T20:42:28.817Z,5.83
2018-12-25T20:45:09.437Z,6.17
2018-12-25T20:47:53.172Z,6.20
2018-12-25T20:50:33.149Z,5.90
2018-12-25T20:53:13.609Z,6.37
2018-12-25T20:55:53.942Z,6.23
2018-12-25T20:58:33.975Z,5.83
2018-12-25T21:01:14.151Z,6.07
2018-12-25T21:03:54.589Z,6.37
2018-12-25T21:09:43.334Z,5.67
2018-12-25T21:12:24.744Z,5.70
2018-12-25T21:15:04.870Z,5.63
2018-12-25T21:17:46.233Z,5.67
2018-12-25T21:20:26.253Z,5.83
2018-12-25T21:23:06.609Z,5.30
2018-12-25T21:25:46.761Z,5.70
2018-12-25T21:28:27.281Z,6.03
2018-12-25T21:31:07.190Z,5.50
2018-12-25T21:33:47.268Z,5.67
2018-12-25T21:36:27.692Z,5.83
2018-12-25T21:39:07.885Z,6.03
2018-12-25T21:41:48.310Z,5.67
2018-12-25T21:44:28.107Z,5.17
2018-12-25T21:47:08.629Z,5.53
2018-12-25T21:49:49.189Z,5.77
2018-12-25T21:52:29.539Z,5.50
2018-12-25T21:55:18.299Z,5.90
2018-12-25T21:57:52.246Z,5.40
2018-12-25T22:00:32.617Z,5.57
2018-12-25T22:03:13.042Z,6.73
2018-12-25T22:05:53.073Z,6.03
2018-12-25T22:11:58.545Z,5.80
2018-12-25T22:14:38.694Z,5.27
2018-12-25T22:17:18.645Z,5.57
2018-12-25T22:19:58.835Z,6.07
2018-12-25T22:22:39.197Z,5.30
2018-12-25T22:25:26.874Z,5.50
2018-12-25T22:28:01.853Z,5.47
2018-12-25T22:30:41.962Z,5.47
2018-12-25T22:33:22.220Z,5.57
2018-12-25T22:36:02.541Z,5.30
2018-12-25T22:38:42.919Z,5.63
2018-12-25T22:41:23.860Z,5.13
2018-12-25T22:44:04.365Z,5.50
2018-12-25T22:46:44.777Z,5.50
2018-12-25T22:49:25.208Z,5.57
2018-12-25T22:52:05.531Z,5.47
2018-12-25T22:54:45.521Z,5.60
2018-12-25T22:57:25.799Z,5.67
2018-12-25T23:00:06.447Z,5.37
2018-12-25T23:02:46.634Z,5.70
2018-12-25T23:05:27.021Z,5.73
2018-12-25T23:08:07.160Z,5.10
2018-12-25T23:10:47.254Z,4.73
2018-12-25T23:13:27.697Z,5.40
2018-12-25T23:19:16.411Z,5.27
2018-12-25T23:21:56.648Z,5.70
2018-12-25T23:24:36.801Z,5.03
2018-12-25T23:27:16.758Z,5.63
2018-12-25T23:29:56.950Z,5.10
2018-12-25T23:35:26.514Z,5.40
2018-12-25T23:38:06.732Z,5.50
2018-12-25T23:40:47.042Z,4.67
2018-12-25T23:43:27.378Z,5.50
2018-12-25T23:46:07.622Z,5.27
2018-12-25T23:48:47.769Z,5.10
2018-12-25T23:51:28.234Z,5.07
2018-12-25T23:57:17.828Z,5.10
2018-12-25T23:59:58.247Z,5.13
